Time;durP1;ratioP1;P1;durP2;ratioP2;P2;SDS_P1;SDS_P2;PMS_P1;PMS_P2;Temp;Humidity;BMP_temperature;BMP_pressure;BME280_temperature;BME280_humidity;BME280_pressure;Samples;Min_cycle;Max_cycle;Signal;HPM_P1;HPM_P2
2024/03/13 00:00:10;;;;;;;2.58;0.60;;;;;;;10.87;42.81;98224.94;4957550;28;20092;-65
2024/03/13 00:02:37;;;;;;;2.97;0.70;;;;;;;11.40;43.46;98303.69;4980003;28;20084;-66
2024/03/13 00:05:03;;;;;;;4.35;0.80;;;;;;;11.30;44.15;98301.22;4974384;28;20072;-63
2024/03/13 00:07:29;;;;;;;2.17;0.70;;;;;;;11.23;44.22;98302.03;4954063;28;20042;-63
2024/03/13 00:09:56;;;;;;;1.73;0.60;;;;;;;11.12;44.77;98290.09;4967302;28;20518;-64
2024/03/13 00:12:27;;;;;;;2.33;0.73;;;;;;;11.09;45.82;98300.81;4971453;28;20034;-66
2024/03/13 00:14:53;;;;;;;3.22;0.70;;;;;;;10.99;46.02;98293.13;4958896;28;20069;-64
2024/03/13 00:17:21;;;;;;;2.40;0.70;;;;;;;10.90;46.83;98312.25;4972620;28;20098;-62
2024/03/13 00:19:54;;;;;;;2.55;0.80;;;;;;;10.32;47.01;98231.28;4970027;28;20045;-65
2024/03/13 00:22:20;;;;;;;3.50;1.00;;;;;;;10.82;46.78;98302.59;4971239;28;20068;-64
2024/03/13 00:24:46;;;;;;;2.33;0.75;;;;;;;10.88;46.49;98309.81;4969669;28;21312;-65
2024/03/13 00:27:12;;;;;;;3.40;0.85;;;;;;;10.74;47.18;98310.38;4982422;28;20092;-66
2024/03/13 00:29:38;;;;;;;3.00;0.70;;;;;;;10.69;47.68;98321.22;4977078;28;20389;-64
2024/03/13 00:32:07;;;;;;;2.50;0.80;;;;;;;10.71;48.11;98314.06;4989075;28;20133;-68
2024/03/13 00:34:36;;;;;;;1.88;0.60;;;;;;;10.32;48.01;98252.09;4979290;28;20076;-64
2024/03/13 00:37:03;;;;;;;2.58;0.60;;;;;;;10.60;48.01;98303.94;4969610;28;20512;-67
2024/03/13 00:39:29;;;;;;;2.00;0.75;;;;;;;10.36;48.36;98266.41;4973575;28;20049;-66
2024/03/13 00:41:55;;;;;;;2.70;0.82;;;;;;;10.58;48.65;98305.88;4954751;28;20132;-64
2024/03/13 00:44:23;;;;;;;4.15;0.80;;;;;;;10.47;48.39;98298.31;4987377;28;20082;-65
2024/03/13 00:46:51;;;;;;;2.40;0.70;;;;;;;10.36;47.40;98253.41;4978472;28;20037;-66
2024/03/13 00:49:17;;;;;;;2.63;0.80;;;;;;;10.52;48.34;98296.91;4962672;28;20058;-67
2024/03/13 00:51:44;;;;;;;2.08;0.60;;;;;;;10.24;48.21;98244.22;4963710;28;20035;-63
2024/03/13 00:54:12;;;;;;;2.10;0.70;;;;;;;10.65;47.07;98285.28;4960405;28;20185;-66
2024/03/13 00:56:39;;;;;;;2.95;0.80;;;;;;;10.71;46.50;98282.88;4987106;28;20600;-67
2024/03/13 00:59:07;;;;;;;2.92;1.00;;;;;;;10.81;45.75;98280.19;4973103;28;20121;-64
2024/03/13 01:01:33;;;;;;;2.05;0.70;;;;;;;10.77;47.19;98300.47;4980493;28;20049;-64
2024/03/13 01:03:59;;;;;;;1.58;0.50;;;;;;;10.64;46.85;98296.66;4982109;28;20383;-65
2024/03/13 01:06:28;;;;;;;2.00;0.70;;;;;;;10.74;46.29;98298.19;5004710;28;20038;-65
2024/03/13 01:08:56;;;;;;;2.03;0.60;;;;;;;10.78;46.63;98302.09;4977551;28;20033;-63
2024/03/13 01:11:21;;;;;;;2.30;0.60;;;;;;;10.78;46.46;98311.69;4974749;28;20105;-67
2024/03/13 01:13:47;;;;;;;2.65;0.80;;;;;;;10.74;46.10;98299.97;4967661;28;20790;-65
2024/03/13 01:16:12;;;;;;;2.88;0.90;;;;;;;10.74;46.96;98300.78;4960644;28;20050;-66
2024/03/13 01:18:41;;;;;;;4.63;0.73;;;;;;;10.64;47.59;98291.44;4993013;28;20049;-64
2024/03/13 01:21:06;;;;;;;2.42;0.70;;;;;;;10.61;48.22;98296.97;4977678;28;20148;-67
2024/03/13 01:23:31;;;;;;;3.15;0.70;;;;;;;10.54;48.77;98307.16;4985467;28;20421;-68
2024/03/13 01:26:02;;;;;;;2.58;0.80;;;;;;;10.53;48.10;98290.75;4954275;28;20049;-64
2024/03/13 01:28:27;;;;;;;3.33;0.60;;;;;;;10.54;48.37;98286.34;4974114;28;20045;-63
2024/03/13 01:30:55;;;;;;;1.98;0.60;;;;;;;10.53;48.24;98288.16;4961531;28;20046;-63
2024/03/13 01:33:21;;;;;;;2.42;0.60;;;;;;;10.61;47.91;98282.19;4976871;28;20775;-65
2024/03/13 01:35:49;;;;;;;2.72;0.60;;;;;;;10.72;47.01;98284.53;4969879;28;20134;-64
2024/03/13 01:38:17;;;;;;;1.25;0.43;;;;;;;10.81;46.50;98281.97;4972817;28;20088;-62
2024/03/13 01:55:06;;;;;;;2.33;0.60;;;;;;;10.16;53.74;98257.94;4955583;28;20072;-63
2024/03/13 01:58:07;;;;;;;1.75;0.70;;;;;;;10.32;53.19;98270.28;4939892;28;20054;-63
2024/03/13 02:03:08;;;;;;;1.58;0.50;;;;;;;10.33;54.20;98269.31;4962373;28;20136;-63
2024/03/13 02:05:35;;;;;;;1.27;0.50;;;;;;;10.39;54.23;98275.69;4953187;28;20035;-65
2024/03/13 02:08:04;;;;;;;2.25;0.63;;;;;;;10.44;53.41;98268.25;4949364;28;20072;-68
2024/03/13 02:10:30;;;;;;;2.25;0.63;;;;;;;10.18;56.99;98273.38;4971983;28;20069;-63
2024/03/13 02:13:06;;;;;;;3.00;0.70;;;;;;;9.83;59.10;98236.09;4942844;28;20500;-63
2024/03/13 02:15:33;;;;;;;3.20;0.73;;;;;;;10.02;56.96;98274.09;4944995;28;20042;-64
2024/03/13 02:18:00;;;;;;;2.92;0.60;;;;;;;10.04;61.26;98273.91;4959289;28;20115;-64
2024/03/13 02:20:26;;;;;;;1.67;0.50;;;;;;;9.99;56.97;98267.38;4958392;28;20069;-65
2024/03/13 02:22:57;;;;;;;1.27;0.43;;;;;;;9.99;52.45;98238.81;4952674;28;20050;-63
2024/03/13 02:25:23;;;;;;;1.52;0.50;;;;;;;10.42;49.95;98275.38;4970494;28;20046;-64
2024/03/13 02:27:53;;;;;;;1.90;0.60;;;;;;;10.46;50.59;98270.69;4931198;28;20125;-65
2024/03/13 02:30:18;;;;;;;1.88;0.60;;;;;;;10.43;50.34;98274.41;4953567;28;20565;-63
2024/03/13 02:32:47;;;;;;;1.75;0.60;;;;;;;10.30;50.59;98250.59;4936873;28;20144;-62
2024/03/13 02:35:13;;;;;;;3.03;0.77;;;;;;;10.14;51.14;98227.91;4931608;28;20041;-67
2024/03/13 02:37:43;;;;;;;3.08;0.70;;;;;;;10.41;51.33;98280.75;4959442;28;20034;-66
2024/03/13 02:40:10;;;;;;;2.10;0.68;;;;;;;10.30;52.64;98282.56;4940526;28;20043;-63
2024/03/13 02:42:37;;;;;;;2.05;0.95;;;;;;;9.91;53.54;98246.56;4970851;28;20611;-68
2024/03/13 02:45:04;;;;;;;2.15;0.70;;;;;;;10.11;53.57;98286.19;4973650;28;20409;-66
2024/03/13 02:47:30;;;;;;;2.58;0.60;;;;;;;10.01;54.69;98282.81;4981700;28;20742;-63
2024/03/13 02:49:56;;;;;;;1.85;0.60;;;;;;;10.10;53.64;98294.13;4964644;28;20034;-64
2024/03/13 02:52:24;;;;;;;2.33;0.70;;;;;;;10.08;53.23;98293.44;4977681;28;20033;-66
2024/03/13 02:54:51;;;;;;;2.03;0.60;;;;;;;10.05;52.92;98288.53;4999648;28;20033;-64
2024/03/13 02:57:18;;;;;;;2.08;0.63;;;;;;;10.05;53.85;98281.56;4972202;28;20042;-64
2024/03/13 02:59:49;;;;;;;2.45;0.70;;;;;;;9.96;53.69;98274.66;4964298;28;20129;-65
2024/03/13 03:02:20;;;;;;;2.85;0.60;;;;;;;9.99;52.92;98282.16;4966163;28;20042;-63
2024/03/13 03:04:45;;;;;;;3.50;0.68;;;;;;;9.91;53.23;98279.47;4959312;28;20179;-63
2024/03/13 03:07:11;;;;;;;2.22;0.60;;;;;;;9.93;53.20;98275.78;4982877;28;20523;-64
2024/03/13 03:09:37;;;;;;;3.90;0.65;;;;;;;9.90;52.64;98277.88;4961150;28;20038;-64
2024/03/13 03:12:08;;;;;;;1.58;0.50;;;;;;;9.99;52.76;98282.16;4994823;28;20744;-66
2024/03/13 03:14:39;;;;;;;1.67;0.55;;;;;;;9.93;53.64;98275.78;4960213;28;20672;-62
2024/03/13 03:17:06;;;;;;;2.47;0.60;;;;;;;9.86;53.66;98286.94;4975696;28;20045;-64
2024/03/13 03:19:34;;;;;;;2.30;0.73;;;;;;;9.83;54.00;98282.81;4960396;28;20501;-64
2024/03/13 03:22:03;;;;;;;3.85;0.70;;;;;;;9.88;55.02;98278.00;4991307;28;20130;-62
2024/03/13 03:24:32;;;;;;;1.20;0.47;;;;;;;9.80;56.83;98283.94;4956408;28;20061;-62
2024/03/13 03:26:58;;;;;;;1.80;0.50;;;;;;;9.88;56.12;98290.19;4961020;28;20391;-67
2024/03/13 03:29:26;;;;;;;1.88;0.60;;;;;;;9.84;57.60;98281.03;4978874;28;20096;-66
2024/03/13 03:31:55;;;;;;;2.33;0.60;;;;;;;9.73;57.17;98295.03;4978074;28;20045;-64
2024/03/13 03:34:24;;;;;;;1.77;0.63;;;;;;;9.75;59.11;98299.16;4961794;28;20084;-65
2024/03/13 03:36:49;;;;;;;2.33;1.02;;;;;;;9.59;61.82;98293.78;4994490;28;20030;-63
2024/03/13 03:39:15;;;;;;;3.92;0.70;;;;;;;9.24;64.29;98293.56;4991472;28;20111;-63
2024/03/13 03:41:43;;;;;;;2.15;0.60;;;;;;;9.01;64.17;98263.75;4966028;28;20827;-64
2024/03/13 03:44:11;;;;;;;1.75;0.60;;;;;;;9.21;63.02;98290.44;4955875;28;20049;-67
2024/03/13 03:46:42;;;;;;;2.10;0.57;;;;;;;9.28;60.90;98281.13;4973252;28;20037;-65
2024/03/13 03:49:08;;;;;;;2.33;0.60;;;;;;;9.30;61.00;98286.16;4972702;28;20045;-63
2024/03/13 03:51:33;;;;;;;1.60;0.50;;;;;;;9.39;59.51;98285.28;4993714;28;20845;-68
2024/03/13 03:53:59;;;;;;;2.30;0.60;;;;;;;9.28;58.10;98281.13;4970177;28;20417;-68
2024/03/13 03:56:28;;;;;;;2.17;0.50;;;;;;;9.29;58.84;98292.28;4961400;28;20042;-63
2024/03/13 03:58:56;;;;;;;2.22;0.60;;;;;;;9.21;58.79;98286.06;4980927;28;20041;-63
2024/03/13 04:01:22;;;;;;;2.58;0.55;;;;;;;9.26;58.11;98305.56;4960019;28;20057;-66
2024/03/13 04:03:47;;;;;;;2.58;0.52;;;;;;;9.24;57.62;98290.97;4988585;28;20025;-65
2024/03/13 04:06:16;;;;;;;2.50;0.70;;;;;;;9.35;57.09;98292.53;4947420;28;20037;-65
2024/03/13 04:08:46;;;;;;;2.95;1.02;;;;;;;9.41;56.84;98291.97;4965300;28;20045;-63
2024/03/13 04:11:11;;;;;;;1.27;0.43;;;;;;;9.34;56.02;98275.34;4974717;28;20103;-68
2024/03/13 04:13:38;;;;;;;1.67;0.52;;;;;;;9.46;55.44;98278.56;4978277;28;20046;-64
2024/03/13 04:16:04;;;;;;;1.23;0.52;;;;;;;9.50;57.92;98289.47;4960299;28;20123;-65
2024/03/13 04:18:31;;;;;;;1.45;0.50;;;;;;;9.50;60.26;98284.28;4961100;28;20030;-64
2024/03/13 04:20:57;;;;;;;3.45;0.65;;;;;;;9.46;62.52;98290.72;4980486;28;20149;-63
2024/03/13 04:23:23;;;;;;;1.40;0.40;;;;;;;8.97;67.14;98239.88;4957848;28;20615;-64
2024/03/13 04:25:49;;;;;;;2.28;0.50;;;;;;;8.84;66.89;98244.59;4982422;28;20037;-67
2024/03/13 04:28:15;;;;;;;2.25;0.50;;;;;;;9.03;66.34;98288.63;4973737;28;20121;-64
2024/03/13 04:30:41;;;;;;;1.20;0.38;;;;;;;8.93;67.69;98290.41;4961762;28;20064;-66
2024/03/13 04:33:07;;;;;;;2.58;0.70;;;;;;;8.74;72.90;98283.50;4973391;28;20038;-65
2024/03/13 04:35:34;;;;;;;3.95;0.60;;;;;;;8.75;70.63;98297.28;5002100;28;20051;-64
2024/03/13 04:38:00;;;;;;;1.92;0.50;;;;;;;8.42;72.94;98245.00;4998799;28;20828;-62
2024/03/13 04:40:25;;;;;;;2.35;0.70;;;;;;;8.78;72.21;98294.41;4984591;28;20038;-64
2024/03/13 04:42:51;;;;;;;2.45;0.57;;;;;;;8.44;73.67;98248.25;4965791;28;20058;-65
2024/03/13 04:45:19;;;;;;;2.95;0.70;;;;;;;8.46;74.30;98249.75;4968857;28;20041;-66
2024/03/13 04:47:44;;;;;;;1.83;0.52;;;;;;;8.66;72.24;98288.59;4974840;28;20035;-63
2024/03/13 04:50:10;;;;;;;2.55;0.70;;;;;;;8.83;69.76;98293.03;4977064;28;20033;-64
2024/03/13 04:52:36;;;;;;;1.55;0.52;;;;;;;8.78;67.37;98284.03;4976836;28;20050;-67
2024/03/13 04:55:01;;;;;;;3.75;0.80;;;;;;;8.80;67.42;98289.91;4976587;28;20041;-64
2024/03/13 04:57:30;;;;;;;2.53;0.60;;;;;;;8.77;67.05;98280.63;4963388;28;20057;-67
2024/03/13 04:59:55;;;;;;;1.60;0.60;;;;;;;8.82;67.10;98280.22;4992413;28;20043;-65
2024/03/13 05:02:24;;;;;;;2.45;0.70;;;;;;;8.76;69.76;98286.78;4993355;28;20065;-64
2024/03/13 05:04:49;;;;;;;2.35;0.80;;;;;;;8.81;70.37;98287.16;4979349;28;20038;-63
2024/03/13 05:07:18;;;;;;;3.72;0.70;;;;;;;8.83;69.62;98289.63;4983200;28;20049;-64
2024/03/13 05:09:47;;;;;;;2.83;0.60;;;;;;;8.90;71.07;98295.88;4967825;28;20697;-64
2024/03/13 05:12:12;;;;;;;1.73;0.52;;;;;;;8.77;70.37;98305.75;4981026;28;20418;-66
2024/03/13 05:14:38;;;;;;;2.35;0.60;;;;;;;8.78;70.32;98305.59;4968389;28;20053;-65
2024/03/13 05:17:15;;;;;;;7.38;0.90;;;;;;;8.75;70.41;98316.25;4976654;28;20038;-69
2024/03/13 05:19:42;;;;;;;2.25;0.65;;;;;;;8.73;69.39;98320.75;4975636;28;20045;-68
2024/03/13 05:22:09;;;;;;;3.15;0.75;;;;;;;8.75;68.58;98323.22;4971161;28;20755;-65
2024/03/13 05:24:35;;;;;;;1.95;0.63;;;;;;;8.67;69.94;98329.09;4963991;28;20365;-66
2024/03/13 05:27:01;;;;;;;2.92;0.60;;;;;;;8.68;69.45;98324.72;4958619;28;20121;-66
2024/03/13 05:29:27;;;;;;;2.67;0.68;;;;;;;8.66;69.51;98330.84;4985105;28;20033;-65
2024/03/13 05:31:55;;;;;;;3.03;0.70;;;;;;;8.65;69.56;98316.28;4975394;28;20756;-63
2024/03/13 05:34:21;;;;;;;2.88;0.80;;;;;;;8.40;69.30;98296.09;4981101;28;20089;-63
2024/03/13 05:36:51;;;;;;;2.83;0.65;;;;;;;8.57;70.08;98321.34;4956517;28;20480;-65
2024/03/13 05:39:17;;;;;;;4.80;1.23;;;;;;;8.20;71.30;98278.00;4972718;28;20117;-64
2024/03/13 05:41:45;;;;;;;3.13;0.80;;;;;;;8.49;72.59;98335.94;4981606;28;20053;-66
2024/03/13 05:44:10;;;;;;;2.05;0.70;;;;;;;8.52;73.07;98344.25;4963836;28;20038;-66
2024/03/13 05:46:39;;;;;;;2.55;0.70;;;;;;;8.48;75.82;98348.06;4965586;28;20066;-66
2024/03/13 05:49:06;;;;;;;2.05;0.65;;;;;;;8.35;76.75;98343.13;4953596;28;20721;-65
2024/03/13 05:51:34;;;;;;;2.47;0.75;;;;;;;8.15;73.96;98298.28;4978991;28;20085;-64
2024/03/13 05:54:02;;;;;;;2.97;0.77;;;;;;;8.44;72.85;98329.41;4956055;28;20026;-65
2024/03/13 05:56:28;;;;;;;3.05;0.70;;;;;;;8.46;73.47;98342.22;4992872;28;20100;-68
2024/03/13 05:58:53;;;;;;;2.75;0.68;;;;;;;8.39;72.07;98343.69;4964302;28;20052;-64
2024/03/13 06:01:22;;;;;;;3.25;0.98;;;;;;;8.33;70.87;98352.81;4970624;28;20046;-63
2024/03/13 06:03:53;;;;;;;3.22;0.70;;;;;;;8.34;71.14;98348.44;4962861;28;20042;-63
2024/03/13 06:06:22;;;;;;;2.60;0.70;;;;;;;8.40;72.00;98351.31;4972427;28;20519;-63
2024/03/13 06:08:47;;;;;;;2.17;0.68;;;;;;;8.45;72.13;98354.34;4955840;28;20063;-64
2024/03/13 06:11:18;;;;;;;3.38;1.00;;;;;;;8.22;71.59;98352.97;4975666;28;20052;-64
2024/03/13 06:13:50;;;;;;;3.92;0.65;;;;;;;8.24;71.14;98348.47;4975899;28;20031;-63
2024/03/13 06:16:15;;;;;;;2.63;0.75;;;;;;;8.29;70.14;98354.06;4949926;28;20068;-64
2024/03/13 06:18:41;;;;;;;2.53;0.60;;;;;;;8.39;69.45;98347.09;4973428;28;20042;-66
2024/03/13 06:21:07;;;;;;;4.78;0.63;;;;;;;8.50;70.11;98353.94;4982567;28;20080;-68
2024/03/13 06:23:36;;;;;;;2.90;1.23;;;;;;;8.62;70.32;98365.00;4967700;28;20116;-64
2024/03/13 06:26:07;;;;;;;2.03;0.63;;;;;;;8.55;70.50;98359.53;4978036;28;20042;-64
2024/03/13 06:31:18;;;;;;;2.65;0.70;;;;;;;8.64;70.21;98357.88;4989969;28;20052;-66
2024/03/13 06:33:44;;;;;;;2.13;0.60;;;;;;;8.65;69.88;98354.31;4976970;28;20056;-64
2024/03/13 06:36:10;;;;;;;2.15;0.60;;;;;;;8.74;69.76;98363.03;4991310;28;20615;-65
2024/03/13 06:38:38;;;;;;;2.03;0.60;;;;;;;8.73;68.46;98362.25;4961531;28;20041;-67
2024/03/13 06:41:05;;;;;;;2.17;0.73;;;;;;;8.78;69.46;98361.81;4964171;28;20074;-66
2024/03/13 06:43:33;;;;;;;2.45;0.70;;;;;;;8.84;69.21;98361.25;4993621;28;20473;-65
2024/03/13 06:45:58;;;;;;;2.47;0.65;;;;;;;8.76;68.68;98363.72;4961226;28;20133;-65
2024/03/13 06:48:26;;;;;;;4.25;0.90;;;;;;;8.56;71.98;98363.75;4990560;28;20042;-67
2024/03/13 06:50:52;;;;;;;2.47;0.70;;;;;;;8.44;73.91;98364.84;4984136;28;20462;-63
2024/03/13 06:53:17;;;;;;;3.08;0.75;;;;;;;8.35;71.94;98363.88;4975904;28;20121;-65
2024/03/13 06:55:45;;;;;;;3.15;0.60;;;;;;;8.47;69.83;98372.38;4976872;28;20079;-64
2024/03/13 06:58:13;;;;;;;3.15;0.80;;;;;;;8.46;70.04;98360.34;4973873;28;20042;-64
2024/03/13 07:00:40;;;;;;;1.83;0.60;;;;;;;8.42;70.67;98362.41;4995516;28;20614;-62
2024/03/13 07:03:07;;;;;;;3.67;0.90;;;;;;;8.44;70.10;98364.84;4959808;28;20064;-67
2024/03/13 07:05:37;;;;;;;2.42;0.70;;;;;;;8.08;70.66;98321.31;4959993;28;20038;-62
2024/03/13 07:08:03;;;;;;;2.53;0.70;;;;;;;8.48;72.14;98366.22;4976488;28;20042;-62
2024/03/13 07:10:28;;;;;;;3.20;0.80;;;;;;;8.51;74.11;98370.31;4963600;28;20749;-63
2024/03/13 07:12:53;;;;;;;3.25;0.80;;;;;;;8.44;74.27;98360.47;4974973;28;20948;-63
2024/03/13 07:15:19;;;;;;;2.80;0.77;;;;;;;8.65;75.71;98368.13;4954188;28;20042;-64
2024/03/13 07:17:45;;;;;;;4.43;0.95;;;;;;;8.43;75.68;98374.41;4974519;28;20583;-64
2024/03/13 07:20:13;;;;;;;3.65;0.80;;;;;;;8.34;76.57;98375.19;4970844;28;20038;-64
2024/03/13 07:22:39;;;;;;;3.35;0.70;;;;;;;8.27;75.39;98371.50;4962587;28;20379;-63
2024/03/13 07:25:12;;;;;;;2.45;0.68;;;;;;;8.28;75.21;98371.34;4978830;28;20064;-63
2024/03/13 07:27:37;;;;;;;3.80;0.80;;;;;;;8.20;75.68;98363.47;4980572;28;20067;-65
2024/03/13 07:30:06;;;;;;;4.47;1.15;;;;;;;8.40;76.44;98377.25;4961536;28;20065;-65
2024/03/13 07:32:34;;;;;;;4.07;1.00;;;;;;;8.38;76.66;98380.94;4971321;28;20041;-63
2024/03/13 07:35:00;;;;;;;4.13;1.10;;;;;;;8.12;76.22;98346.97;4969193;28;20045;-64
2024/03/13 07:37:28;;;;;;;4.55;1.13;;;;;;;8.33;76.63;98385.69;4957797;28;20041;-66
2024/03/13 07:39:58;;;;;;;4.00;1.20;;;;;;;8.25;77.33;98387.19;4982660;28;20049;-66
2024/03/13 07:42:25;;;;;;;4.95;1.25;;;;;;;8.23;77.02;98368.38;4980455;28;20827;-64
2024/03/13 07:44:51;;;;;;;3.92;1.00;;;;;;;8.44;77.00;98386.41;4977129;28;21253;-65
2024/03/13 07:47:16;;;;;;;4.10;1.05;;;;;;;8.46;76.34;98383.69;4964113;28;20096;-68
2024/03/13 07:49:45;;;;;;;4.82;1.10;;;;;;;8.20;76.41;98352.28;4956112;28;20027;-64
2024/03/13 07:52:12;;;;;;;4.25;1.25;;;;;;;8.48;76.23;98375.78;4981287;28;20092;-64
2024/03/13 07:54:40;;;;;;;2.83;0.88;;;;;;;8.35;76.48;98347.50;4970627;28;20030;-64
2024/03/13 07:57:08;;;;;;;4.45;1.00;;;;;;;8.69;78.83;98396.34;4974423;28;20054;-68
2024/03/13 07:59:34;;;;;;;3.33;1.10;;;;;;;8.66;79.49;98393.06;4970702;28;20041;-67
2024/03/13 08:01:59;;;;;;;7.65;1.08;;;;;;;8.52;82.09;98362.38;4980092;28;20042;-65
2024/03/13 08:04:26;;;;;;;2.95;0.98;;;;;;;8.76;82.33;98400.00;4969926;28;20113;-65
2024/03/13 08:06:55;;;;;;;4.28;1.00;;;;;;;8.80;83.13;98401.41;4981492;28;20037;-65
2024/03/13 08:09:28;;;;;;;3.67;1.00;;;;;;;8.74;82.87;98402.75;4984066;28;20081;-67
2024/03/13 08:11:57;;;;;;;3.67;0.90;;;;;;;8.62;83.56;98414.22;4977497;28;21419;-64
2024/03/13 08:14:23;;;;;;;2.72;1.00;;;;;;;8.65;82.91;98422.56;4961927;28;20030;-65
2024/03/13 08:16:52;;;;;;;4.47;1.30;;;;;;;8.72;82.71;98424.59;4964244;28;20046;-64
2024/03/13 08:19:18;;;;;;;4.10;1.20;;;;;;;8.56;83.35;98400.03;4955550;28;20112;-65
2024/03/13 08:21:43;;;;;;;3.88;1.33;;;;;;;8.69;83.52;98430.88;4961844;28;20045;-65
2024/03/13 08:24:11;;;;;;;6.00;1.25;;;;;;;8.79;83.94;98430.84;4964928;28;20593;-62
2024/03/13 08:26:39;;;;;;;4.55;1.27;;;;;;;8.56;83.36;98394.88;4974006;28;20642;-65
2024/03/13 08:29:07;;;;;;;4.53;1.05;;;;;;;8.81;81.90;98424.56;4970738;28;20867;-68
2024/03/13 08:31:33;;;;;;;4.70;1.30;;;;;;;8.88;80.90;98427.44;4953780;28;20081;-65
2024/03/13 08:33:59;;;;;;;4.47;1.00;;;;;;;8.78;80.44;98424.03;4978642;28;20120;-63
2024/03/13 08:36:24;;;;;;;3.47;1.00;;;;;;;8.70;79.04;98418.72;4971675;28;20120;-63
2024/03/13 08:38:50;;;;;;;3.78;0.90;;;;;;;8.75;78.90;98432.91;4967985;28;20042;-64
2024/03/13 08:41:19;;;;;;;2.97;0.90;;;;;;;8.76;78.73;98423.34;4990445;28;20054;-65
2024/03/13 08:43:44;;;;;;;3.75;0.82;;;;;;;8.78;79.94;98421.44;4958443;28;20587;-64
2024/03/13 08:46:12;;;;;;;5.43;1.00;;;;;;;8.81;80.17;98439.31;4973842;28;20042;-63
2024/03/13 08:48:40;;;;;;;4.07;0.90;;;;;;;8.80;80.67;98429.91;4953667;28;20076;-64
2024/03/13 08:51:11;;;;;;;3.25;0.90;;;;;;;8.81;78.59;98437.53;4963788;28;21687;-67
2024/03/13 08:53:38;;;;;;;3.92;0.80;;;;;;;8.75;77.87;98440.69;4970387;28;20049;-64
2024/03/13 08:56:04;;;;;;;3.88;0.80;;;;;;;8.76;76.67;98436.31;4959891;28;20065;-65
2024/03/13 08:58:32;;;;;;;3.25;0.77;;;;;;;8.78;74.74;98436.97;4957736;28;20980;-65
2024/03/13 09:01:00;;;;;;;3.45;0.98;;;;;;;8.92;79.39;98435.75;4956182;28;20042;-66
2024/03/13 09:03:28;;;;;;;3.13;0.90;;;;;;;8.90;78.77;98441.06;4970194;28;20044;-64
2024/03/13 09:05:55;;;;;;;4.30;0.93;;;;;;;8.75;77.96;98432.91;4959376;28;20096;-64
2024/03/13 09:08:24;;;;;;;5.82;1.00;;;;;;;8.57;78.07;98398.25;4957431;28;20142;-67
2024/03/13 09:10:52;;;;;;;3.85;0.82;;;;;;;8.63;78.46;98408.06;4983461;28;20080;-62
2024/03/13 09:13:17;;;;;;;4.22;0.80;;;;;;;8.76;77.69;98449.28;4972449;28;20034;-62
2024/03/13 09:15:45;;;;;;;4.05;0.95;;;;;;;8.71;76.43;98454.06;4983543;28;20038;-65
2024/03/13 09:18:10;;;;;;;3.75;1.00;;;;;;;8.77;72.14;98450.91;4963093;28;20846;-65
2024/03/13 09:20:37;;;;;;;3.88;0.90;;;;;;;8.83;71.31;98452.94;4990464;28;20041;-68
2024/03/13 09:23:03;;;;;;;3.58;0.70;;;;;;;8.85;70.68;98446.69;4980344;28;20196;-64
2024/03/13 09:25:30;;;;;;;3.50;0.77;;;;;;;8.93;71.53;98447.78;4972588;28;20038;-68
2024/03/13 09:27:56;;;;;;;5.07;1.08;;;;;;;8.95;70.51;98444.09;4979187;28;20041;-68
2024/03/13 09:30:21;;;;;;;5.90;1.00;;;;;;;9.02;69.66;98442.56;4988678;28;20042;-64
2024/03/13 09:32:49;;;;;;;6.88;1.20;;;;;;;9.27;67.40;98440.31;4978114;28;20300;-65
2024/03/13 09:35:17;;;;;;;2.78;0.70;;;;;;;9.50;67.59;98438.22;4960732;28;20101;-64
2024/03/13 09:37:43;;;;;;;1.90;0.60;;;;;;;9.76;65.26;98434.97;4973052;28;20108;-65
2024/03/13 09:40:16;;;;;;;5.07;1.30;;;;;;;9.81;65.92;98438.75;5002942;28;20038;-67
2024/03/13 09:42:44;;;;;;;11.20;4.18;;;;;;;9.88;64.67;98436.44;4974230;28;20607;-66
2024/03/13 09:45:16;;;;;;;8.70;3.08;;;;;;;9.82;65.86;98401.47;4963286;28;20048;-64
2024/03/13 09:47:42;;;;;;;7.68;2.33;;;;;;;10.32;63.32;98441.00;4956622;28;20467;-63
2024/03/13 09:50:12;;;;;;;2.60;0.70;;;;;;;10.45;61.88;98435.44;4961396;28;20054;-64
2024/03/13 09:52:39;;;;;;;6.03;2.40;;;;;;;10.65;60.35;98436.09;4979999;28;20080;-64
2024/03/13 09:55:13;;;;;;;5.00;1.42;;;;;;;10.57;58.65;98403.84;4979191;28;20033;-67
2024/03/13 09:57:41;;;;;;;2.33;0.60;;;;;;;10.99;55.39;98454.44;4960159;28;20041;-66
2024/03/13 10:00:14;;;;;;;3.00;0.77;;;;;;;10.91;54.15;98416.13;4958239;28;20744;-65
2024/03/13 10:02:42;;;;;;;4.40;1.25;;;;;;;11.30;53.45;98441.78;4955308;28;20045;-68
2024/03/13 10:05:12;;;;;;;5.95;2.10;;;;;;;11.43;54.05;98450.97;4995043;28;20037;-64
2024/03/13 10:07:38;;;;;;;8.38;2.40;;;;;;;11.73;53.86;98450.47;4986874;28;20125;-67
2024/03/13 10:10:32;;;;;;;6.82;2.13;;;;;;;11.90;51.16;98446.19;4975159;28;20094;-64
2024/03/13 10:13:01;;;;;;;7.50;3.13;;;;;;;12.12;51.09;98410.09;4960824;28;20733;-65
2024/03/13 10:15:29;;;;;;;7.93;2.33;;;;;;;12.18;50.11;98414.66;4988142;28;20045;-66
2024/03/13 10:17:58;;;;;;;6.20;1.30;;;;;;;12.48;47.23;98454.16;4960790;28;20057;-66
2024/03/13 10:20:29;;;;;;;4.35;1.25;;;;;;;12.54;50.67;98450.06;4990069;28;20033;-64
2024/03/13 10:22:57;;;;;;;2.63;0.70;;;;;;;12.60;47.80;98441.63;4961417;28;20056;-68
2024/03/13 10:25:23;;;;;;;2.10;0.70;;;;;;;12.63;45.82;98439.50;4976076;28;20110;-65
2024/03/13 10:27:51;;;;;;;2.28;0.70;;;;;;;12.53;46.56;98399.72;4974207;28;20030;-63
2024/03/13 10:30:17;;;;;;;2.97;0.70;;;;;;;12.83;45.86;98437.41;4960587;28;20053;-67
2024/03/13 10:32:47;;;;;;;3.03;0.80;;;;;;;12.84;45.22;98436.41;4973564;28;20042;-63
2024/03/13 10:35:14;;;;;;;3.42;0.90;;;;;;;12.76;45.12;98435.59;4979741;28;20077;-64
2024/03/13 10:37:42;;;;;;;3.13;0.77;;;;;;;12.83;45.17;98434.78;4962488;28;20192;-64
2024/03/13 10:40:08;;;;;;;2.75;0.77;;;;;;;13.02;45.18;98438.03;4983230;28;20562;-64
2024/03/13 10:42:37;;;;;;;3.95;0.80;;;;;;;12.97;45.22;98435.09;4966108;28;20050;-68
2024/03/13 10:45:04;;;;;;;3.22;0.98;;;;;;;13.07;44.69;98420.91;4946123;28;20050;-64
2024/03/13 10:47:30;;;;;;;3.67;1.00;;;;;;;13.33;44.00;98430.34;4957831;28;20853;-64
2024/03/13 10:50:00;;;;;;;3.08;0.95;;;;;;;13.15;44.42;98393.16;4963074;28;20030;-65
2024/03/13 10:52:28;;;;;;;3.53;0.85;;;;;;;13.43;44.41;98441.44;4939746;28;20153;-64
2024/03/13 10:54:54;;;;;;;2.70;0.88;;;;;;;13.30;44.31;98422.00;4963339;28;20840;-64
2024/03/13 10:57:19;;;;;;;4.28;1.00;;;;;;;13.42;43.54;98428.53;4959822;28;20038;-64
2024/03/13 10:59:48;;;;;;;4.25;0.93;;;;;;;13.48;43.66;98425.25;4951618;28;20042;-62
2024/03/13 11:02:15;;;;;;;2.80;0.90;;;;;;;13.53;44.17;98422.94;4946338;28;20136;-65
2024/03/13 11:04:41;;;;;;;3.72;0.90;;;;;;;13.49;43.29;98421.66;4957007;28;20034;-64
2024/03/13 11:07:18;;;;;;;3.33;0.93;;;;;;;13.65;44.09;98416.38;4941195;28;20065;-64
2024/03/13 11:09:44;;;;;;;3.97;0.90;;;;;;;13.78;43.43;98423.69;4962287;28;21522;-64
2024/03/13 11:12:20;;;;;;;3.88;1.10;;;;;;;13.74;42.95;98424.19;4965612;28;20043;-67
2024/03/13 11:14:51;;;;;;;4.10;1.30;;;;;;;13.81;43.74;98422.53;4943397;28;20580;-64
2024/03/13 11:17:20;;;;;;;3.10;0.93;;;;;;;13.90;43.28;98415.47;4937168;28;20128;-64
2024/03/13 11:19:46;;;;;;;;;;;;;;;13.93;42.94;98426.41;4953497;28;20537;-66
2024/03/13 11:22:12;;;;;;;3.40;1.00;;;;;;;13.92;43.18;98411.69;4962415;28;19929;-67
2024/03/13 11:24:39;;;;;;;3.92;1.17;;;;;;;13.93;42.74;98409.91;4957211;28;20042;-63
2024/03/13 11:27:23;;;;;;;3.92;1.13;;;;;;;13.99;43.44;98412.63;4931746;28;20050;-66
2024/03/13 11:29:49;;;;;;;3.60;1.20;;;;;;;13.95;44.22;98403.50;4958326;28;20152;-64
2024/03/13 11:32:15;;;;;;;3.55;1.10;;;;;;;14.09;42.93;98404.59;4951940;28;20038;-67
2024/03/13 11:34:44;;;;;;;3.67;1.10;;;;;;;14.27;43.39;98406.91;4955501;28;20104;-64
2024/03/13 11:37:11;;;;;;;3.90;1.40;;;;;;;14.27;43.75;98396.44;4941716;28;20057;-66
2024/03/13 11:39:41;;;;;;;4.72;1.48;;;;;;;14.22;43.78;98399.59;4951785;28;20065;-68
2024/03/13 11:42:10;;;;;;;4.50;1.52;;;;;;;14.27;43.86;98379.97;4945619;28;20452;-66
2024/03/13 11:44:42;;;;;;;5.03;1.98;;;;;;;14.27;43.84;98379.97;4981140;28;20069;-66
2024/03/13 11:47:11;;;;;;;4.90;1.83;;;;;;;14.37;45.58;98378.75;4973400;28;20096;-66
2024/03/13 11:49:37;;;;;;;5.75;2.00;;;;;;;14.07;44.71;98327.31;4966613;28;20041;-63
2024/03/13 11:52:03;;;;;;;6.60;2.30;;;;;;;14.59;45.35;98379.75;4958831;28;20045;-68
2024/03/13 11:54:34;;;;;;;5.93;2.35;;;;;;;14.54;44.65;98368.16;4976049;28;20119;-67
2024/03/13 11:57:12;;;;;;;6.10;2.30;;;;;;;14.61;44.54;98372.53;4971683;28;20062;-66
2024/03/13 11:59:38;;;;;;;5.45;2.30;;;;;;;14.70;45.64;98368.03;4953494;28;20080;-66